Time;durP1;ratioP1;P1;durP2;ratioP2;P2;SDS_P1;SDS_P2;PMS_P1;PMS_P2;Temp;Humidity;BMP_temperature;BMP_pressure;BME280_temperature;BME280_humidity;BME280_pressure;Samples;Min_cycle;Max_cycle;Signal;HPM_P1;HPM_P2
2022/04/17 00:00:17;;;;;;;13.53;6.60;;;-0.20;99.90;;;;;;4339673;28;658643;-68
2022/04/17 00:03:05;;;;;;;15.37;6.83;;;-0.20;99.90;;;;;;4357302;28;659160;-68
2022/04/17 00:05:52;;;;;;;17.07;7.40;;;-0.20;99.90;;;;;;4335980;28;660322;-68
2022/04/17 00:08:39;;;;;;;14.70;6.90;;;-0.30;99.90;;;;;;4358470;28;658892;-68
2022/04/17 00:11:27;;;;;;;21.37;7.33;;;-0.40;99.90;;;;;;4339006;28;659102;-69
2022/04/17 00:14:15;;;;;;;15.17;7.07;;;-0.40;99.90;;;;;;4357370;28;659018;-68
2022/04/17 00:17:03;;;;;;;13.63;6.53;;;-0.40;99.90;;;;;;4339956;28;659540;-68
2022/04/17 00:19:50;;;;;;;17.03;6.70;;;-0.40;99.90;;;;;;4340435;28;659089;-68
2022/04/17 00:22:38;;;;;;;15.67;7.63;;;-0.30;99.90;;;;;;4358200;28;659973;-68
2022/04/17 00:25:25;;;;;;;16.07;7.37;;;-0.30;99.90;;;;;;4346411;28;658602;-68
2022/04/17 00:28:13;;;;;;;17.40;7.63;;;-0.30;99.90;;;;;;4358230;28;659786;-68
2022/04/17 00:31:02;;;;;;;23.53;7.87;;;-0.40;99.90;;;;;;4347490;28;658901;-68
2022/04/17 00:33:49;;;;;;;16.33;7.03;;;-0.30;99.90;;;;;;4358204;28;658856;-68
2022/04/17 00:36:36;;;;;;;18.83;7.37;;;-0.30;99.90;;;;;;4338805;28;658650;-68
2022/04/17 00:39:24;;;;;;;15.57;7.07;;;-0.30;99.90;;;;;;4358054;28;659271;-69
2022/04/17 00:42:11;;;;;;;19.17;7.83;;;-0.30;99.90;;;;;;4339049;28;659177;-68
2022/04/17 00:44:58;;;;;;;14.90;7.27;;;-0.30;99.90;;;;;;4357445;28;659757;-69
2022/04/17 00:47:47;;;;;;;17.00;7.67;;;-0.30;99.90;;;;;;4340170;28;658586;-68
2022/04/17 00:50:34;;;;;;;16.63;7.63;;;-0.40;99.90;;;;;;4362077;28;658252;-68
2022/04/17 00:53:22;;;;;;;19.53;8.10;;;-0.40;99.90;;;;;;4340932;28;658983;-69
2022/04/17 00:56:10;;;;;;;15.90;7.23;;;-0.40;99.90;;;;;;4359134;28;658801;-68
2022/04/17 00:58:57;;;;;;;20.53;7.70;;;-0.40;99.90;;;;;;4336876;28;659927;-68
2022/04/17 01:01:44;;;;;;;20.13;8.02;;;-0.40;99.90;;;;;;4358471;28;658808;-68
2022/04/17 01:04:33;;;;;;;16.10;8.17;;;-0.40;99.90;;;;;;4339455;28;658542;-68
2022/04/17 01:07:22;;;;;;;16.47;8.10;;;-0.40;99.90;;;;;;4339328;28;658411;-69
2022/04/17 01:10:10;;;;;;;16.47;7.90;;;-0.30;99.90;;;;;;4358493;28;658339;-69
2022/04/17 01:12:58;;;;;;;20.50;8.47;;;-0.30;99.90;;;;;;4335915;28;659587;-68
2022/04/17 01:15:46;;;;;;;20.97;8.80;;;-0.40;99.90;;;;;;4339856;28;658699;-68
2022/04/17 01:18:55;;;;;;;19.30;9.70;;;-0.40;99.90;;;;;;4358016;28;660283;-69
2022/04/17 01:21:46;;;;;;;18.63;8.40;;;-0.40;99.90;;;;;;4313686;28;659065;-68
2022/04/17 01:27:38;;;;;;;17.87;8.53;;;-0.50;99.90;;;;;;4335832;28;659487;-69
2022/04/17 01:30:26;;;;;;;19.02;8.85;;;-0.50;99.90;;;;;;4344184;28;658740;-68
2022/04/17 01:33:13;;;;;;;24.73;8.00;;;-0.50;99.90;;;;;;4361069;28;659685;-69
2022/04/17 01:36:00;;;;;;;20.02;8.32;;;-0.50;99.90;;;;;;4339468;28;658544;-68
2022/04/17 01:38:49;;;;;;;17.50;7.93;;;-0.50;99.90;;;;;;4361498;28;660313;-69
2022/04/17 01:41:37;;;;;;;15.17;6.93;;;-0.50;99.90;;;;;;4342345;28;658908;-68
2022/04/17 01:44:25;;;;;;;17.50;7.75;;;-0.60;99.90;;;;;;4361221;28;659443;-69
2022/04/17 01:47:13;;;;;;;17.93;7.60;;;-0.60;99.90;;;;;;4322851;28;659773;-69
2022/04/17 01:50:00;;;;;;;16.27;7.57;;;-0.60;99.90;;;;;;4337286;28;658728;-68
2022/04/17 01:52:48;;;;;;;15.03;6.90;;;-0.60;99.90;;;;;;4344328;28;659484;-68
2022/04/17 01:55:37;;;;;;;14.48;6.70;;;-0.60;99.90;;;;;;4330754;28;658837;-68
2022/04/17 01:58:24;;;;;;;15.43;7.60;;;-0.60;99.90;;;;;;4345837;28;658697;-69
2022/04/17 02:01:12;;;;;;;14.87;7.30;;;-0.60;99.90;;;;;;4326561;28;658833;-68
2022/04/17 02:03:59;;;;;;;16.80;6.97;;;-0.60;99.90;;;;;;4344982;28;659063;-69
2022/04/17 02:06:47;;;;;;;14.33;7.03;;;-0.50;99.90;;;;;;4325831;28;659637;-68
2022/04/17 02:09:35;;;;;;;16.27;7.33;;;-0.50;99.90;;;;;;4342782;28;658379;-69
2022/04/17 02:12:25;;;;;;;13.43;6.97;;;-0.40;99.90;;;;;;4344301;28;660013;-69
2022/04/17 02:15:14;;;;;;;16.07;7.30;;;-0.50;99.90;;;;;;4322041;28;660096;-68
2022/04/17 02:18:01;;;;;;;12.80;6.72;;;-0.50;99.90;;;;;;4325294;28;659006;-69
2022/04/17 02:20:49;;;;;;;12.53;6.77;;;-0.60;99.90;;;;;;4343457;28;659796;-69
2022/04/17 02:23:36;;;;;;;18.67;7.17;;;-0.60;99.90;;;;;;4325663;28;658585;-69
2022/04/17 02:26:23;;;;;;;15.30;7.05;;;-0.50;99.90;;;;;;4344311;28;659199;-68
2022/04/17 02:29:12;;;;;;;14.50;6.93;;;-0.50;99.90;;;;;;4325176;28;658563;-69
2022/04/17 02:31:59;;;;;;;16.35;7.25;;;-0.50;99.90;;;;;;4327670;28;658482;-68
2022/04/17 02:34:47;;;;;;;13.33;6.40;;;-0.60;99.90;;;;;;4309565;28;658881;-69
2022/04/17 02:37:37;;;;;;;14.27;6.43;;;-0.80;99.90;;;;;;4327652;28;658566;-68
2022/04/17 02:40:24;;;;;;;12.30;6.03;;;-1.00;99.90;;;;;;4305231;28;659174;-69
2022/04/17 02:43:12;;;;;;;15.00;6.57;;;-1.00;99.90;;;;;;4309551;28;658376;-69
2022/04/17 02:46:01;;;;;;;14.10;7.13;;;-1.00;99.90;;;;;;4336868;28;659190;-69
2022/04/17 02:48:48;;;;;;;19.13;7.70;;;-1.10;1.00;;;;;;4321018;28;659893;-69
2022/04/17 02:51:35;;;;;;;14.80;7.03;;;-1.00;1.00;;;;;;4327190;28;657487;-68
2022/04/17 02:54:23;;;;;;;16.43;7.13;;;-1.00;99.90;;;;;;4346102;28;658876;-68
2022/04/17 02:57:11;;;;;;;14.93;7.60;;;-1.00;99.90;;;;;;4330004;28;659497;-68
2022/04/17 02:59:58;;;;;;;17.73;7.73;;;-0.90;1.00;;;;;;4344713;28;659465;-69
2022/04/17 03:06:00;;;;;;;18.57;8.33;;;-0.90;99.90;;;;;;4290556;28;658519;-69
2022/04/17 03:08:48;;;;;;;20.33;8.40;;;-0.90;1.00;;;;;;4343773;28;659540;-69
2022/04/17 03:11:35;;;;;;;19.93;8.23;;;-0.80;1.00;;;;;;4334069;28;658112;-69
2022/04/17 03:14:23;;;;;;;16.50;8.07;;;-0.80;99.90;;;;;;4344768;28;658443;-68
2022/04/17 03:17:10;;;;;;;17.93;7.30;;;-0.80;99.90;;;;;;4334415;28;658740;-68
2022/04/17 03:19:59;;;;;;;16.23;6.97;;;-0.80;99.90;;;;;;4343895;28;659773;-69
2022/04/17 03:22:46;;;;;;;13.52;7.15;;;-0.80;99.90;;;;;;4325338;28;658840;-69
2022/04/17 03:25:34;;;;;;;15.90;7.40;;;-0.80;99.90;;;;;;4344655;28;659168;-69
2022/04/17 03:28:21;;;;;;;15.20;7.07;;;-0.70;10.30;;;;;;4326048;28;659182;-69
2022/04/17 03:31:08;;;;;;;15.30;6.70;;;-0.70;1.00;;;;;;4347903;28;659344;-69
2022/04/17 03:33:56;;;;;;;17.77;6.37;;;-0.70;99.90;;;;;;4326262;28;657711;-68
2022/04/17 03:36:44;;;;;;;13.23;6.73;;;-0.70;37.70;;;;;;4347816;28;659476;-68
2022/04/17 03:39:32;;;;;;;15.50;6.67;;;-0.60;99.90;;;;;;4325669;28;658734;-68
2022/04/17 03:42:21;;;;;;;12.70;6.43;;;-0.60;1.00;;;;;;4343757;28;659348;-69
2022/04/17 03:45:11;;;;;;;11.53;6.13;;;-0.60;29.80;;;;;;4322481;28;659600;-68
2022/04/17 03:47:59;;;;;;;13.03;5.80;;;-0.60;1.00;;;;;;4320904;28;659742;-68
2022/04/17 03:50:47;;;;;;;13.50;6.37;;;-0.60;99.90;;;;;;4326205;28;657640;-68
2022/04/17 03:53:36;;;;;;;11.47;6.37;;;-0.50;99.90;;;;;;4343459;28;658999;-69
2022/04/17 03:56:23;;;;;;;13.47;6.70;;;-0.50;99.90;;;;;;4325468;28;659265;-68
2022/04/17 03:59:11;;;;;;;15.67;6.30;;;-0.40;1.00;;;;;;4338666;28;659182;-68
2022/04/17 04:01:58;;;;;;;12.93;6.23;;;-0.40;99.90;;;;;;4359961;28;657691;-68
2022/04/17 04:04:46;;;;;;;14.83;6.37;;;-0.40;1.00;;;;;;4342062;28;659110;-69
2022/04/17 04:07:33;;;;;;;12.17;6.10;;;-0.40;1.00;;;;;;4363638;28;658776;-68
2022/04/17 04:10:22;;;;;;;15.73;6.90;;;-0.30;1.00;;;;;;4340833;28;657544;-68
2022/04/17 04:13:09;;;;;;;16.27;6.77;;;-0.30;1.00;;;;;;4358289;28;657780;-69
2022/04/17 04:15:56;;;;;;;13.15;5.93;;;-0.30;1.00;;;;;;4340629;28;657515;-68
2022/04/17 04:18:44;;;;;;;11.57;5.80;;;-0.30;1.00;;;;;;4359135;28;658383;-68
2022/04/17 04:21:31;;;;;;;11.57;6.03;;;-0.30;1.00;;;;;;4336435;28;657931;-68
2022/04/17 04:24:19;;;;;;;11.77;5.80;;;-0.10;1.00;;;;;;4358911;28;658314;-68
2022/04/17 04:30:12;;;;;;;8.60;4.90;;;0.20;99.90;;;;;;4314290;28;658920;-68
2022/04/17 04:33:00;;;;;;;10.20;5.80;;;0.40;99.90;;;;;;4363941;28;656086;-68
2022/04/17 04:35:47;;;;;;;10.70;5.73;;;0.30;1.00;;;;;;4336816;28;658151;-68
2022/04/17 04:38:34;;;;;;;13.45;6.05;;;0.30;99.90;;;;;;4360271;28;657340;-68
2022/04/17 04:41:22;;;;;;;10.87;5.57;;;0.50;1.00;;;;;;4340458;28;658640;-68
2022/04/17 04:44:11;;;;;;;16.23;6.40;;;0.60;99.90;;;;;;4360048;28;656354;-68
2022/04/17 04:46:58;;;;;;;19.77;7.87;;;0.50;99.90;;;;;;4337159;28;658562;-69
2022/04/17 04:49:45;;;;;;;26.77;7.43;;;0.60;1.00;;;;;;4341193;28;658097;-68
2022/04/17 04:52:36;;;;;;;11.63;6.40;;;0.90;1.00;;;;;;4364993;28;656831;-68
2022/04/17 04:55:24;;;;;;;11.68;6.28;;;1.10;1.00;;;;;;4341966;28;657095;-68
2022/04/17 04:58:11;;;;;;;11.37;5.93;;;1.30;99.90;;;;;;4342494;28;656862;-68
2022/04/17 05:01:00;;;;;;;11.20;5.87;;;1.60;1.00;;;;;;4364340;28;658662;-68
2022/04/17 05:03:47;;;;;;;9.53;5.30;;;1.80;1.00;;;;;;4342919;28;657511;-68
2022/04/17 05:06:34;;;;;;;10.50;5.30;;;2.00;99.90;;;;;;4366734;28;655091;-68
2022/04/17 05:09:22;;;;;;;9.60;4.90;;;2.10;99.90;;;;;;4337971;28;657787;-69
2022/04/17 05:12:10;;;;;;;12.40;6.10;;;2.30;1.00;;;;;;4366670;28;656130;-69
2022/04/17 05:14:57;;;;;;;10.98;6.00;;;2.50;99.90;;;;;;4344913;28;657592;-68
2022/04/17 05:17:46;;;;;;;20.40;8.20;;;2.40;99.90;;;;;;4366989;28;657375;-68
2022/04/17 05:20:33;;;;;;;23.83;7.00;;;2.60;99.90;;;;;;4340289;28;658392;-68
2022/04/17 05:23:25;;;;;;;12.27;6.03;;;2.70;99.90;;;;;;4344355;28;657518;-68
2022/04/17 05:26:13;;;;;;;12.93;6.33;;;2.90;1.00;;;;;;4344616;28;658602;-68
2022/04/17 05:29:02;;;;;;;13.57;5.10;;;3.10;1.00;;;;;;4348197;28;657151;-68
2022/04/17 05:31:49;;;;;;;8.63;4.47;;;3.20;99.90;;;;;;4364333;28;657223;-69
2022/04/17 05:34:38;;;;;;;8.40;4.77;;;3.40;20.70;;;;;;4345318;28;656426;-68
2022/04/17 05:37:27;;;;;;;9.95;4.53;;;3.50;1.00;;;;;;4345125;28;656786;-68
2022/04/17 05:40:14;;;;;;;9.73;4.53;;;3.70;1.00;;;;;;4365288;28;655889;-69
2022/04/17 05:43:02;;;;;;;9.00;5.20;;;3.80;1.00;;;;;;4346740;28;655597;-69
2022/04/17 05:45:49;;;;;;;9.37;5.20;;;3.90;1.00;;;;;;4364179;28;655715;-69
2022/04/17 05:48:36;;;;;;;9.10;5.05;;;4.10;1.00;;;;;;4345258;28;655365;-69
2022/04/17 05:51:25;;;;;;;8.83;4.80;;;4.30;99.90;;;;;;4364281;28;656158;-68
2022/04/17 05:54:12;;;;;;;11.63;4.90;;;4.30;99.90;;;;;;4344560;28;658125;-69
2022/04/17 05:57:00;;;;;;;8.13;4.33;;;4.50;1.00;;;;;;4361556;28;657704;-69
2022/04/17 05:59:48;;;;;;;11.60;4.70;;;4.80;1.00;;;;;;4341465;28;656123;-69
2022/04/17 06:02:35;;;;;;;9.03;4.20;;;4.90;1.00;;;;;;4357219;28;656786;-69
2022/04/17 06:05:23;;;;;;;9.70;3.87;;;5.10;1.00;;;;;;4363835;28;657346;-69
2022/04/17 06:08:12;;;;;;;6.93;3.80;;;5.20;1.00;;;;;;4345474;28;655177;-68
2022/04/17 06:10:59;;;;;;;6.73;3.17;;;5.30;1.00;;;;;;4366491;28;655441;-68
2022/04/17 06:13:47;;;;;;;7.43;3.40;;;5.20;99.90;;;;;;4345990;28;655713;-69
2022/04/17 06:16:34;;;;;;;7.07;3.13;;;5.20;99.90;;;;;;4366959;28;656045;-68
2022/04/17 06:19:21;;;;;;;6.33;3.10;;;5.50;99.90;;;;;;4343968;28;656284;-69
2022/04/17 06:22:10;;;;;;;9.20;3.67;;;5.50;99.90;;;;;;4362328;28;656388;-69
2022/04/17 06:24:59;;;;;;;5.87;3.13;;;5.60;1.00;;;;;;4340467;28;657065;-68
2022/04/17 06:27:47;;;;;;;8.43;3.63;;;5.70;99.90;;;;;;4345073;28;655783;-68
2022/04/17 06:30:34;;;;;;;6.77;3.17;;;5.80;99.90;;;;;;4361761;28;656508;-69
2022/04/17 06:33:21;;;;;;;8.77;2.93;;;6.00;99.90;;;;;;4342523;28;656669;-68
2022/04/17 06:36:09;;;;;;;4.17;2.30;;;6.20;99.90;;;;;;4362541;28;656428;-69
2022/04/17 06:38:56;;;;;;;4.97;2.90;;;6.40;99.90;;;;;;4341594;28;657042;-69
2022/04/17 06:41:45;;;;;;;5.45;2.67;;;6.40;99.90;;;;;;4361638;28;658424;-69
2022/04/17 06:44:34;;;;;;;9.33;3.17;;;6.30;99.90;;;;;;4343847;28;656925;-69
2022/04/17 06:47:21;;;;;;;4.93;2.90;;;6.40;99.90;;;;;;4325018;28;656664;-68
2022/04/17 06:50:09;;;;;;;5.17;3.27;;;6.10;99.90;;;;;;4344824;28;657055;-69
2022/04/17 06:53:00;;;;;;;4.90;2.97;;;6.20;1.00;;;;;;4320989;28;657701;-69
2022/04/17 06:55:48;;;;;;;5.10;2.83;;;6.30;1.00;;;;;;4323995;28;656695;-69
2022/04/17 06:58:37;;;;;;;6.07;3.40;;;6.40;1.00;;;;;;4336624;28;655421;-69
2022/04/17 07:01:24;;;;;;;7.63;3.17;;;6.40;1.00;;;;;;4344981;28;656230;-69
2022/04/17 07:04:11;;;;;;;5.80;3.22;;;6.60;1.00;;;;;;4327574;28;655845;-69
2022/04/17 07:06:59;;;;;;;4.17;2.67;;;6.70;99.90;;;;;;4346430;28;656171;-69
2022/04/17 07:09:46;;;;;;;4.13;2.20;;;6.80;54.40;;;;;;4326425;28;656449;-69
2022/04/17 07:12:34;;;;;;;5.80;2.90;;;6.90;99.90;;;;;;4346725;28;657283;-69
2022/04/17 07:15:24;;;;;;;4.73;2.07;;;6.90;99.90;;;;;;4325723;28;656937;-69
2022/04/17 07:18:11;;;;;;;6.40;2.47;;;6.90;1.00;;;;;;4326805;28;656553;-68
2022/04/17 07:20:59;;;;;;;4.57;2.53;;;7.00;1.00;;;;;;4345689;28;656639;-69
2022/04/17 07:23:47;;;;;;;3.60;2.20;;;7.10;5.60;;;;;;4327472;28;656046;-69
2022/04/17 07:26:35;;;;;;;4.60;2.30;;;7.40;61.90;;;;;;4350237;28;655126;-69
2022/04/17 07:29:22;;;;;;;4.63;2.43;;;7.50;59.70;;;;;;4321824;28;658114;-69
2022/04/17 07:32:11;;;;;;;4.68;2.72;;;7.40;60.40;;;;;;4343964;28;656834;-68
2022/04/17 07:34:58;;;;;;;3.60;1.80;;;7.30;60.80;;;;;;4321663;28;657395;-69
2022/04/17 07:37:48;;;;;;;6.83;3.30;;;7.80;57.40;;;;;;4325989;28;656585;-69
2022/04/17 07:40:36;;;;;;;7.67;3.40;;;7.80;57.80;;;;;;4327338;28;656380;-69
2022/04/17 07:43:23;;;;;;;4.23;2.43;;;7.90;58.90;;;;;;4343988;28;656957;-69
2022/04/17 07:46:10;;;;;;;3.57;1.63;;;7.90;58.90;;;;;;4339629;28;656822;-69
2022/04/17 07:48:59;;;;;;;2.30;1.50;;;7.90;57.80;;;;;;4362279;28;657603;-69
2022/04/17 07:51:46;;;;;;;2.58;1.92;;;8.30;55.50;;;;;;4343539;28;656749;-69
2022/04/17 07:54:34;;;;;;;3.40;2.40;;;7.80;53.00;;;;;;4361782;28;656983;-69
2022/04/17 07:57:21;;;;;;;4.73;2.47;;;7.70;55.30;;;;;;4341138;28;656570;-69
2022/04/17 08:00:10;;;;;;;4.10;1.93;;;7.70;54.40;;;;;;4365917;28;657212;-69
2022/04/17 08:03:06;;;;;;;3.73;1.73;;;7.80;54.20;;;;;;4335565;28;657906;-69
2022/04/17 08:05:55;;;;;;;2.63;1.43;;;7.40;51.90;;;;;;4339094;28;656850;-69
2022/04/17 08:08:43;;;;;;;2.90;1.47;;;7.70;54.60;;;;;;4341520;28;656360;-69
2022/04/17 08:11:30;;;;;;;1.88;1.40;;;7.60;52.30;;;;;;4346868;28;656697;-69
2022/04/17 08:14:18;;;;;;;2.70;1.10;;;7.50;51.30;;;;;;4361362;28;657230;-69
2022/04/17 08:17:05;;;;;;;4.27;1.60;;;7.40;49.70;;;;;;4349627;28;656880;-69
2022/04/17 08:19:53;;;;;;;1.87;1.40;;;7.70;50.10;;;;;;4362532;28;658170;-69
2022/04/17 08:22:42;;;;;;;1.98;1.33;;;8.40;53.00;;;;;;4346402;28;657107;-69
2022/04/17 08:25:29;;;;;;;4.80;1.83;;;9.10;51.50;;;;;;4361215;28;656679;-69
2022/04/17 08:28:17;;;;;;;3.70;1.97;;;8.70;48.90;;;;;;4342578;28;656309;-69
2022/04/17 08:31:06;;;;;;;3.53;1.50;;;8.70;52.00;;;;;;4365361;28;656064;-69
2022/04/17 08:33:53;;;;;;;2.63;1.33;;;8.20;49.10;;;;;;4338815;28;657233;-68
2022/04/17 08:36:40;;;;;;;1.73;1.20;;;8.00;50.50;;;;;;4342188;28;657025;-69
2022/04/17 08:39:29;;;;;;;2.97;1.20;;;7.90;50.80;;;;;;4361329;28;657457;-69
2022/04/17 08:42:16;;;;;;;1.57;1.20;;;8.30;50.00;;;;;;4339243;28;657012;-69
2022/04/17 08:45:04;;;;;;;2.80;1.30;;;8.10;48.40;;;;;;4361027;28;656682;-69
2022/04/17 08:47:53;;;;;;;1.93;1.30;;;8.00;48.30;;;;;;4341286;28;657800;-69
2022/04/17 08:50:40;;;;;;;4.73;1.70;;;7.50;48.80;;;;;;4347780;28;656731;-69
2022/04/17 08:53:28;;;;;;;2.63;1.30;;;7.60;51.60;;;;;;4360833;28;657930;-69
2022/04/17 08:56:17;;;;;;;2.13;1.43;;;8.80;50.70;;;;;;4348371;28;657082;-69
2022/04/17 08:59:04;;;;;;;2.30;1.33;;;9.30;49.00;;;;;;4358437;28;657487;-69
2022/04/17 09:01:51;;;;;;;4.20;1.40;;;9.10;47.80;;;;;;4341646;28;656521;-69
2022/04/17 09:04:39;;;;;;;2.43;1.47;;;8.70;48.10;;;;;;4360185;28;656842;-69
2022/04/17 09:07:27;;;;;;;2.90;1.63;;;8.70;47.80;;;;;;4340810;28;656513;-69
2022/04/17 09:10:27;;;;;;;4.27;1.60;;;8.60;47.50;;;;;;4363653;28;656265;-69
2022/04/17 09:13:16;;;;;;;3.40;1.80;;;8.50;48.30;;;;;;4337525;28;657035;-69
2022/04/17 09:16:04;;;;;;;3.13;1.60;;;8.50;50.30;;;;;;4338051;28;657730;-69
2022/04/17 09:18:51;;;;;;;2.03;1.33;;;8.80;50.10;;;;;;4340768;28;656552;-69
2022/04/17 09:21:38;;;;;;;5.25;1.83;;;9.20;48.70;;;;;;4359899;28;657831;-69
2022/04/17 09:24:26;;;;;;;2.97;1.63;;;9.40;46.90;;;;;;4341816;28;656915;-69
2022/04/17 09:27:13;;;;;;;6.53;1.70;;;9.80;46.40;;;;;;4363650;28;657553;-69
2022/04/17 09:30:02;;;;;;;4.03;1.57;;;10.60;46.70;;;;;;4341380;28;656721;-69
2022/04/17 09:32:52;;;;;;;3.17;1.70;;;11.20;45.70;;;;;;4357374;28;658135;-69
2022/04/17 09:35:39;;;;;;;3.23;1.90;;;10.90;45.40;;;;;;4339825;28;657578;-69
2022/04/17 09:38:26;;;;;;;3.47;1.70;;;10.70;46.00;;;;;;4340052;28;657478;-70
2022/04/17 09:41:14;;;;;;;3.37;1.80;;;10.10;45.60;;;;;;4358044;28;658661;-69
2022/04/17 09:44:01;;;;;;;3.83;1.88;;;10.20;45.90;;;;;;4339954;28;657629;-69
2022/04/17 09:46:58;;;;;;;3.23;1.60;;;10.50;48.50;;;;;;4359331;28;658711;-70
2022/04/17 09:49:53;;;;;;;2.63;1.67;;;10.20;45.80;;;;;;4318587;28;657957;-69
2022/04/17 09:52:41;;;;;;;2.60;1.80;;;9.70;47.10;;;;;;4321907;28;658117;-69
2022/04/17 09:55:28;;;;;;;3.50;1.90;;;9.40;48.00;;;;;;4364304;28;658157;-69
2022/04/17 09:58:21;;;;;;;4.40;2.37;;;8.90;49.20;;;;;;4343395;28;656747;-69
2022/04/17 10:01:09;;;;;;;4.17;2.03;;;9.30;49.70;;;;;;4340939;28;657314;-69
2022/04/17 10:03:58;;;;;;;4.70;1.70;;;9.60;50.20;;;;;;4345201;28;656403;-67
2022/04/17 10:06:45;;;;;;;3.67;1.80;;;9.50;50.60;;;;;;4345312;28;656429;-67
2022/04/17 10:09:33;;;;;;;4.27;1.43;;;9.20;47.30;;;;;;4363854;28;657746;-67
2022/04/17 10:12:21;;;;;;;5.33;1.70;;;9.80;48.90;;;;;;4345519;28;656952;-69
2022/04/17 10:15:10;;;;;;;5.83;1.93;;;10.20;46.60;;;;;;4366722;28;656463;-69
2022/04/17 10:17:58;;;;;;;3.60;1.80;;;10.10;48.00;;;;;;4339920;28;658174;-69
2022/04/17 10:20:47;;;;;;;2.57;1.90;;;10.10;47.30;;;;;;4357189;28;657446;-69
2022/04/17 10:23:37;;;;;;;2.77;1.90;;;10.30;47.50;;;;;;4361904;28;657714;-69
2022/04/17 10:26:24;;;;;;;2.70;1.70;;;10.40;46.90;;;;;;4339543;28;657419;-69
2022/04/17 10:29:16;;;;;;;3.33;1.93;;;9.90;49.00;;;;;;4343828;28;657804;-69
2022/04/17 10:32:17;;;;;;;4.23;2.07;;;9.20;49.80;;;;;;4341236;28;657447;-69
2022/04/17 10:35:26;;;;;;;3.97;2.20;;;8.70;50.90;;;;;;4340735;28;657299;-69
2022/04/17 10:38:25;;;;;;;4.27;1.67;;;9.00;52.30;;;;;;4345098;28;656815;-67
2022/04/17 10:41:12;;;;;;;3.63;2.13;;;8.60;51.40;;;;;;4318567;28;656706;-67
2022/04/17 10:44:00;;;;;;;2.67;1.80;;;8.60;51.50;;;;;;4362909;28;656665;-67
2022/04/17 10:46:51;;;;;;;4.40;2.07;;;8.80;53.70;;;;;;4339362;28;657677;-67
2022/04/17 10:49:52;;;;;;;3.83;1.93;;;9.20;50.80;;;;;;4339685;28;657121;-67
2022/04/17 10:52:41;;;;;;;3.73;1.90;;;9.50;50.50;;;;;;4339633;28;657074;-67
2022/04/17 10:55:31;;;;;;;2.67;1.97;;;10.30;52.10;;;;;;4337195;28;656311;-69
2022/04/17 10:58:18;;;;;;;3.53;2.00;;;10.20;47.80;;;;;;4338681;28;658240;-69
2022/04/17 11:01:05;;;;;;;2.93;2.10;;;10.80;48.30;;;;;;4342384;28;657414;-69
2022/04/17 11:03:53;;;;;;;4.40;2.30;;;12.20;47.20;;;;;;4360542;28;659160;-69
2022/04/17 11:06:40;;;;;;;3.10;1.88;;;11.50;43.80;;;;;;4341927;28;657586;-69
2022/04/17 11:09:28;;;;;;;3.53;1.93;;;11.70;43.70;;;;;;4359295;28;659018;-69
2022/04/17 11:12:26;;;;;;;4.80;2.20;;;11.20;44.80;;;;;;4343621;28;658100;-69
2022/04/17 11:15:30;;;;;;;3.67;2.03;;;11.20;44.40;;;;;;4338040;28;658081;-69
2022/04/17 11:18:20;;;;;;;4.20;2.00;;;10.70;44.60;;;;;;4315195;28;658057;-69
2022/04/17 11:21:11;;;;;;;3.50;1.63;;;10.50;45.10;;;;;;4341086;28;658484;-69
2022/04/17 11:23:58;;;;;;;3.17;2.10;;;9.70;47.40;;;;;;4337931;28;658504;-69
2022/04/17 11:27:07;;;;;;;5.00;1.93;;;9.60;49.50;;;;;;4342436;28;656565;-69
2022/04/17 11:29:57;;;;;;;3.90;1.70;;;9.20;49.50;;;;;;4338179;28;656360;-69
2022/04/17 11:32:52;;;;;;;2.53;1.77;;;9.10;49.80;;;;;;4364477;28;656689;-69
2022/04/17 11:35:41;;;;;;;3.40;1.87;;;9.10;50.50;;;;;;4339064;28;656765;-69
2022/04/17 11:38:28;;;;;;;2.77;1.70;;;9.20;50.10;;;;;;4339208;28;657416;-69
2022/04/17 11:41:15;;;;;;;2.67;1.50;;;9.20;50.00;;;;;;4344988;28;656507;-69
2022/04/17 11:44:05;;;;;;;4.37;1.60;;;9.70;48.90;;;;;;4361910;28;657855;-69
2022/04/17 11:46:53;;;;;;;1.87;1.50;;;9.90;46.60;;;;;;4339464;28;657326;-69
2022/04/17 11:49:41;;;;;;;2.37;1.37;;;9.70;47.10;;;;;;4342915;28;656682;-69
2022/04/17 11:52:28;;;;;;;2.47;1.53;;;10.40;47.90;;;;;;4361581;28;657372;-69
2022/04/17 11:55:15;;;;;;;2.03;1.37;;;11.30;45.10;;;;;;4342093;28;657527;-69
2022/04/17 11:58:03;;;;;;;1.53;1.20;;;11.40;43.50;;;;;;4360619;28;658762;-69
2022/04/17 12:00:55;;;;;;;4.03;1.40;;;10.50;42.50;;;;;;4341709;28;657871;-69
2022/04/17 12:03:47;;;;;;;3.07;1.40;;;10.40;44.00;;;;;;4337750;28;658981;-68
2022/04/17 12:06:34;;;;;;;3.63;1.70;;;9.70;43.00;;;;;;4338131;28;657457;-69
2022/04/17 12:09:22;;;;;;;4.33;1.93;;;9.60;46.40;;;;;;4343106;28;656649;-69
2022/04/17 12:12:12;;;;;;;4.10;1.80;;;9.50;45.90;;;;;;4365231;28;656167;-69
2022/04/17 12:15:02;;;;;;;4.50;1.80;;;9.70;47.90;;;;;;4340510;28;656449;-69
2022/04/17 12:18:00;;;;;;;4.53;2.23;;;10.00;44.90;;;;;;4320543;28;656543;-69
2022/04/17 12:20:59;;;;;;;2.40;1.50;;;9.80;46.00;;;;;;4314816;28;658589;-69
2022/04/17 12:23:46;;;;;;;3.30;1.67;;;9.90;47.10;;;;;;4342792;28;656326;-69
2022/04/17 12:26:33;;;;;;;1.90;1.57;;;10.30;48.20;;;;;;4361544;28;657383;-69
2022/04/17 12:29:21;;;;;;;3.37;1.73;;;10.20;44.00;;;;;;4341350;28;658085;-67
2022/04/17 12:32:14;;;;;;;3.60;1.90;;;10.60;45.90;;;;;;4363369;28;657926;-67
2022/04/17 12:35:02;;;;;;;3.00;1.77;;;10.30;43.70;;;;;;4341841;28;657606;-67
2022/04/17 12:38:01;;;;;;;2.40;1.50;;;10.50;43.30;;;;;;4357658;28;657947;-67
2022/04/17 12:40:48;;;;;;;2.60;1.50;;;10.30;43.20;;;;;;4337548;28;657777;-67
2022/04/17 12:43:36;;;;;;;2.37;1.77;;;10.70;44.10;;;;;;4341741;28;657286;-67
2022/04/17 12:46:27;;;;;;;2.43;1.70;;;10.70;43.20;;;;;;4364514;28;659177;-67
2022/04/17 12:49:15;;;;;;;2.73;1.60;;;10.40;42.70;;;;;;4341498;28;657611;-67
2022/04/17 12:52:03;;;;;;;7.67;1.63;;;9.90;44.60;;;;;;4335800;28;658761;-67
2022/04/17 12:54:53;;;;;;;4.30;1.80;;;10.00;45.20;;;;;;4341508;28;656511;-67
2022/04/17 12:57:40;;;;;;;5.20;2.00;;;9.70;46.30;;;;;;4344017;28;657377;-67
2022/04/17 13:00:28;;;;;;;3.37;1.60;;;9.60;45.70;;;;;;4360236;28;657444;-67
2022/04/17 13:03:16;;;;;;;4.20;1.80;;;10.10;47.10;;;;;;4344953;28;656383;-67
2022/04/17 13:06:04;;;;;;;2.70;1.70;;;11.60;44.90;;;;;;4362247;28;657782;-67
2022/04/17 13:09:10;;;;;;;3.47;1.80;;;13.00;43.90;;;;;;4340955;28;658101;-67
2022/04/17 13:11:59;;;;;;;3.07;1.50;;;12.70;39.50;;;;;;4317570;28;658424;-67
2022/04/17 13:14:55;;;;;;;2.47;1.43;;;12.20;41.40;;;;;;4336175;28;657455;-67
2022/04/17 13:17:46;;;;;;;2.63;1.40;;;11.90;40.50;;;;;;4336547;28;658070;-67
2022/04/17 13:20:34;;;;;;;3.67;1.60;;;11.60;41.50;;;;;;4336185;28;657618;-67
2022/04/17 13:23:22;;;;;;;2.10;1.30;;;11.30;42.00;;;;;;4340214;28;657958;-67
2022/04/17 13:26:12;;;;;;;3.83;1.90;;;10.60;43.10;;;;;;4358486;28;657765;-67
2022/04/17 13:29:00;;;;;;;2.00;1.40;;;11.40;44.70;;;;;;4340476;28;657076;-67
2022/04/17 13:31:48;;;;;;;3.53;2.17;;;11.90;41.30;;;;;;4335959;28;658337;-67
2022/04/17 13:34:37;;;;;;;2.03;1.40;;;13.60;42.90;;;;;;4343343;28;658004;-67
2022/04/17 13:40:30;;;;;;;1.93;1.20;;;11.80;36.60;;;;;;4340149;28;658116;-67
2022/04/17 13:43:18;;;;;;;2.53;1.63;;;11.60;40.00;;;;;;4338252;28;658385;-67
2022/04/17 13:46:07;;;;;;;3.50;1.80;;;11.60;40.50;;;;;;4346922;28;658172;-67
2022/04/17 13:48:54;;;;;;;5.00;1.40;;;11.00;41.00;;;;;;4367195;28;657477;-67
2022/04/17 13:51:42;;;;;;;2.23;1.43;;;11.00;42.60;;;;;;4344293;28;657811;-67
2022/04/17 13:54:29;;;;;;;2.93;1.70;;;10.30;41.70;;;;;;4362442;28;657440;-67
2022/04/17 13:57:17;;;;;;;3.23;1.80;;;10.00;44.70;;;;;;4340106;28;657844;-67
2022/04/17 14:00:04;;;;;;;3.97;1.63;;;10.10;43.30;;;;;;4363065;28;658672;-67
2022/04/17 14:02:53;;;;;;;2.57;1.60;;;9.50;44.10;;;;;;4323674;28;658442;-66
2022/04/17 14:05:41;;;;;;;3.87;1.40;;;9.90;42.90;;;;;;4327443;28;656977;-67
2022/04/17 14:08:28;;;;;;;2.40;1.53;;;10.20;42.40;;;;;;4346111;28;658255;-67
2022/04/17 14:11:15;;;;;;;2.40;1.20;;;10.90;41.40;;;;;;4328482;28;657941;-67
2022/04/17 14:14:03;;;;;;;2.03;1.20;;;11.90;41.50;;;;;;4345370;28;658846;-67
2022/04/17 14:16:50;;;;;;;2.73;1.60;;;11.80;42.10;;;;;;4330374;28;657765;-67
2022/04/17 14:19:39;;;;;;;4.43;2.30;;;11.80;42.10;;;;;;4345450;28;659483;-67
2022/04/17 14:22:26;;;;;;;2.65;1.40;;;11.00;41.50;;;;;;4326800;28;657598;-67
2022/04/17 14:25:14;;;;;;;4.13;2.00;;;11.20;42.20;;;;;;4345423;28;658258;-67
2022/04/17 14:28:01;;;;;;;3.03;1.73;;;11.60;42.00;;;;;;4325227;28;658260;-66
2022/04/17 14:30:48;;;;;;;3.42;1.58;;;12.10;43.20;;;;;;4348161;28;658794;-67
2022/04/17 14:33:36;;;;;;;2.37;1.30;;;11.70;41.20;;;;;;4326804;28;657593;-67
2022/04/17 14:36:26;;;;;;;3.90;1.60;;;12.10;41.00;;;;;;4347325;28;658571;-67
2022/04/17 14:39:14;;;;;;;2.17;1.47;;;12.90;41.30;;;;;;4322262;28;658361;-67